Royal City, Washington
Current Conditions -  °F | °C
As of 6:52 AM on Thursday 23 Oct 2014 (Local Time) from KMWH Reporting Station
Overcast Overcast  
Wind Chill: 53°   Ceiling: 7000
Heat Index: 53°   Visibility: 10mi
Dew Point: 46°   Wind: 8mph
Humidity: 77%   Direction: 180°S
Pressure: 29.76"   Gusts: NA
Location:  46.9°N, 119.63°W
Report Text: KMWH 231352Z 18007KT 10SM BKN070 OVC080 12/08 A2976 RMK AO2 SLP077 T01170078
Loading
Personal Weather Stations






























Interactive Weather Map
Tropical Storm Tracking
New forecast layout! Learn more

10-Day Weather Forecast

Advertisements
Track Severe Weather on mobile